DLH9HC EDDF-EDDP
Flight info
| Callsign | DLH9HC |
|---|---|
| Flight time | 0h 34m |
| Altitude | 23000 |
| Route | SULUS6F SULUS Z12 LASGA/N0400F220 T953 VOCIM/N0392F210 T954 GOXLI GOXLI1R |
| Aircraft | A320/M-SDE3FGHIRWY/LB1 |
Departure
| Time | 2026-04-17 22:09 |
|---|---|
| Airport | Frankfurt Main Airport (EDDF) |
Arrival
| Time | 2026-04-17 22:43 |
|---|---|
| Airport | Leipzig/Halle Airport (EDDP) |
| Time | Latitude | Longitude | Altitude | Speed | Heading |
|---|---|---|---|---|---|
| 2026-04-17 21:30 | 50.04416 | 8.56276 | 356 ft | 0 kts | 162° |
| 2026-04-17 21:57 | 50.04423 | 8.56272 | 356 ft | 3 kts | 162° |
| 2026-04-17 21:57 | 50.04442 | 8.56262 | 363 ft | 3 kts | 162° |
| 2026-04-17 21:57 | 50.04462 | 8.56254 | 356 ft | 3 kts | 167° |
| 2026-04-17 21:58 | 50.04479 | 8.56250 | 356 ft | 3 kts | 212° |
| 2026-04-17 21:58 | 50.04489 | 8.56267 | 356 ft | 1 kts | 249° |
| 2026-04-17 21:58 | 50.04486 | 8.56254 | 364 ft | 3 kts | 249° |
| 2026-04-17 21:58 | 50.04479 | 8.56225 | 356 ft | 3 kts | 249° |
| 2026-04-17 21:59 | 50.04472 | 8.56195 | 356 ft | 3 kts | 250° |
| 2026-04-17 21:59 | 50.04464 | 8.56166 | 356 ft | 3 kts | 250° |
| 2026-04-17 21:59 | 50.04457 | 8.56136 | 356 ft | 3 kts | 250° |
| 2026-04-17 21:59 | 50.04453 | 8.56119 | 356 ft | 0 kts | 250° |
| 2026-04-17 22:01 | 50.04452 | 8.56114 | 362 ft | 2 kts | 250° |
| 2026-04-17 22:02 | 50.04442 | 8.56075 | 356 ft | 6 kts | 247° |
| 2026-04-17 22:02 | 50.04406 | 8.56027 | 356 ft | 7 kts | 185° |
| 2026-04-17 22:02 | 50.04365 | 8.56043 | 356 ft | 6 kts | 163° |
| 2026-04-17 22:02 | 50.04323 | 8.56067 | 361 ft | 9 kts | 159° |
| 2026-04-17 22:03 | 50.04258 | 8.56029 | 360 ft | 4 kts | 211° |
| 2026-04-17 22:03 | 50.04258 | 8.56047 | 354 ft | 4 kts | 58° |
| 2026-04-17 22:03 | 50.04285 | 8.56128 | 362 ft | 10 kts | 69° |
| 2026-04-17 22:03 | 50.04265 | 8.56224 | 360 ft | 12 kts | 152° |
| 2026-04-17 22:04 | 50.04191 | 8.56268 | 359 ft | 11 kts | 159° |
| 2026-04-17 22:04 | 50.04126 | 8.56255 | 359 ft | 10 kts | 231° |
| 2026-04-17 22:04 | 50.04085 | 8.56101 | 355 ft | 18 kts | 250° |
| 2026-04-17 22:04 | 50.04039 | 8.55903 | 350 ft | 21 kts | 251° |
| 2026-04-17 22:05 | 50.03985 | 8.55686 | 349 ft | 23 kts | 250° |
| 2026-04-17 22:05 | 50.03928 | 8.55450 | 351 ft | 24 kts | 249° |
| 2026-04-17 22:05 | 50.03869 | 8.55198 | 351 ft | 25 kts | 250° |
| 2026-04-17 22:05 | 50.03805 | 8.54930 | 356 ft | 27 kts | 249° |
| 2026-04-17 22:06 | 50.03737 | 8.54644 | 346 ft | 29 kts | 250° |
| 2026-04-17 22:06 | 50.03673 | 8.54379 | 348 ft | 23 kts | 250° |
| 2026-04-17 22:06 | 50.03617 | 8.54136 | 348 ft | 25 kts | 249° |
| 2026-04-17 22:06 | 50.03553 | 8.53877 | 341 ft | 27 kts | 249° |
| 2026-04-17 22:07 | 50.03486 | 8.53598 | 337 ft | 28 kts | 250° |
| 2026-04-17 22:07 | 50.03416 | 8.53303 | 336 ft | 30 kts | 249° |
| 2026-04-17 22:07 | 50.03350 | 8.53032 | 331 ft | 21 kts | 249° |
| 2026-04-17 22:07 | 50.03302 | 8.52827 | 333 ft | 21 kts | 250° |
| 2026-04-17 22:08 | 50.03251 | 8.52643 | 333 ft | 17 kts | 232° |
| 2026-04-17 22:08 | 50.03105 | 8.52597 | 335 ft | 39 kts | 179° |
| 2026-04-17 22:08 | 50.02577 | 8.52601 | 334 ft | 109 kts | 179° |
| 2026-04-17 22:08 | 50.01627 | 8.52612 | 335 ft | 162 kts | 179° |
| 2026-04-17 22:09 | 50.00504 | 8.52606 | 913 ft | 161 kts | 180° |
| 2026-04-17 22:09 | 49.99376 | 8.52592 | 1554 ft | 164 kts | 180° |
| 2026-04-17 22:09 | 49.98151 | 8.52601 | 1901 ft | 188 kts | 180° |
| 2026-04-17 22:09 | 49.96831 | 8.53081 | 2258 ft | 208 kts | 146° |
| 2026-04-17 22:10 | 49.95876 | 8.54896 | 2633 ft | 231 kts | 112° |
| 2026-04-17 22:10 | 49.95573 | 8.57409 | 3194 ft | 248 kts | 85° |
| 2026-04-17 22:10 | 49.95845 | 8.60112 | 3978 ft | 256 kts | 82° |
| 2026-04-17 22:10 | 49.96060 | 8.62889 | 4815 ft | 263 kts | 84° |
| 2026-04-17 22:11 | 49.96238 | 8.65748 | 5672 ft | 269 kts | 85° |
| 2026-04-17 22:11 | 49.96384 | 8.68672 | 6545 ft | 274 kts | 86° |
| 2026-04-17 22:11 | 49.96534 | 8.71640 | 7404 ft | 278 kts | 85° |
| 2026-04-17 22:11 | 49.96721 | 8.74657 | 8253 ft | 282 kts | 84° |
| 2026-04-17 22:12 | 49.96944 | 8.77698 | 9112 ft | 285 kts | 83° |
| 2026-04-17 22:12 | 49.96964 | 8.80777 | 9933 ft | 287 kts | 101° |
| 2026-04-17 22:12 | 49.96238 | 8.83665 | 10637 ft | 294 kts | 122° |
| 2026-04-17 22:12 | 49.95039 | 8.86351 | 11064 ft | 311 kts | 128° |
| 2026-04-17 22:13 | 49.93694 | 8.89089 | 11477 ft | 329 kts | 127° |
| 2026-04-17 22:13 | 49.92366 | 8.92098 | 11860 ft | 345 kts | 124° |
| 2026-04-17 22:13 | 49.91080 | 8.95288 | 12504 ft | 352 kts | 116° |
| 2026-04-17 22:13 | 49.90375 | 8.98935 | 13156 ft | 358 kts | 96° |
| 2026-04-17 22:14 | 49.90521 | 9.02784 | 13835 ft | 361 kts | 75° |
| 2026-04-17 22:14 | 49.91538 | 9.06325 | 14489 ft | 362 kts | 53° |
| 2026-04-17 22:14 | 49.93056 | 9.09390 | 15161 ft | 364 kts | 50° |
| 2026-04-17 22:14 | 49.94630 | 9.12493 | 15816 ft | 368 kts | 50° |
| 2026-04-17 22:15 | 49.96216 | 9.15628 | 16452 ft | 371 kts | 50° |
| 2026-04-17 22:15 | 49.97811 | 9.18797 | 17077 ft | 374 kts | 50° |
| 2026-04-17 22:15 | 49.99419 | 9.22008 | 17688 ft | 378 kts | 50° |
| 2026-04-17 22:15 | 50.01037 | 9.25250 | 18282 ft | 381 kts | 50° |
| 2026-04-17 22:16 | 50.02666 | 9.28528 | 18847 ft | 385 kts | 50° |
| 2026-04-17 22:16 | 50.04308 | 9.31841 | 19420 ft | 389 kts | 50° |
| 2026-04-17 22:16 | 50.05977 | 9.35193 | 19988 ft | 392 kts | 50° |
| 2026-04-17 22:16 | 50.07652 | 9.38557 | 20555 ft | 395 kts | 50° |
| 2026-04-17 22:17 | 50.09342 | 9.41952 | 21106 ft | 398 kts | 50° |
| 2026-04-17 22:17 | 50.11039 | 9.45374 | 21639 ft | 401 kts | 50° |
| 2026-04-17 22:17 | 50.12751 | 9.48831 | 22180 ft | 404 kts | 50° |
| 2026-04-17 22:17 | 50.14475 | 9.52319 | 22557 ft | 407 kts | 50° |
| 2026-04-17 22:18 | 50.16202 | 9.55820 | 22806 ft | 408 kts | 50° |
| 2026-04-17 22:18 | 50.17928 | 9.59327 | 23054 ft | 408 kts | 50° |
| 2026-04-17 22:18 | 50.19662 | 9.62852 | 23186 ft | 409 kts | 50° |
| 2026-04-17 22:18 | 50.21383 | 9.66359 | 23201 ft | 405 kts | 50° |
| 2026-04-17 22:19 | 50.23094 | 9.69849 | 23202 ft | 404 kts | 50° |
| 2026-04-17 22:19 | 50.24803 | 9.73333 | 23201 ft | 404 kts | 50° |
| 2026-04-17 22:19 | 50.26511 | 9.76812 | 23203 ft | 404 kts | 50° |
| 2026-04-17 22:19 | 50.28218 | 9.80293 | 23201 ft | 403 kts | 50° |
| 2026-04-17 22:20 | 50.29898 | 9.83732 | 23208 ft | 403 kts | 50° |
| 2026-04-17 22:20 | 50.31600 | 9.87223 | 23211 ft | 403 kts | 50° |
| 2026-04-17 22:20 | 50.33301 | 9.90714 | 23210 ft | 403 kts | 50° |
| 2026-04-17 22:20 | 50.34997 | 9.94202 | 23210 ft | 403 kts | 50° |
| 2026-04-17 22:21 | 50.36694 | 9.97698 | 23208 ft | 403 kts | 50° |
| 2026-04-17 22:21 | 50.38390 | 10.01191 | 23207 ft | 403 kts | 50° |
| 2026-04-17 22:21 | 50.40087 | 10.04690 | 23206 ft | 403 kts | 50° |
| 2026-04-17 22:21 | 50.41779 | 10.08181 | 23204 ft | 402 kts | 50° |
| 2026-04-17 22:22 | 50.43470 | 10.11679 | 23203 ft | 402 kts | 50° |
| 2026-04-17 22:22 | 50.45155 | 10.15174 | 23202 ft | 402 kts | 50° |
| 2026-04-17 22:22 | 50.46839 | 10.18675 | 23202 ft | 402 kts | 50° |
| 2026-04-17 22:22 | 50.48523 | 10.22179 | 23200 ft | 402 kts | 50° |
| 2026-04-17 22:23 | 50.50204 | 10.25684 | 23200 ft | 402 kts | 50° |
| 2026-04-17 22:23 | 50.51887 | 10.29190 | 23197 ft | 402 kts | 50° |
| 2026-04-17 22:23 | 50.53569 | 10.32688 | 23197 ft | 401 kts | 50° |
| 2026-04-17 22:23 | 50.55251 | 10.36188 | 23195 ft | 401 kts | 50° |
| 2026-04-17 22:24 | 50.56930 | 10.39690 | 23192 ft | 401 kts | 50° |
| 2026-04-17 22:24 | 50.58608 | 10.43199 | 23197 ft | 401 kts | 50° |
| 2026-04-17 22:24 | 50.60284 | 10.46716 | 23195 ft | 402 kts | 50° |
| 2026-04-17 22:24 | 50.61957 | 10.50236 | 23187 ft | 400 kts | 50° |
| 2026-04-17 22:25 | 50.63595 | 10.53693 | 23049 ft | 388 kts | 50° |
| 2026-04-17 22:25 | 50.65200 | 10.57076 | 22687 ft | 383 kts | 50° |
| 2026-04-17 22:25 | 50.66784 | 10.60421 | 22271 ft | 379 kts | 50° |
| 2026-04-17 22:25 | 50.68352 | 10.63739 | 21830 ft | 376 kts | 50° |
| 2026-04-17 22:26 | 50.69910 | 10.67041 | 21397 ft | 374 kts | 50° |
| 2026-04-17 22:26 | 50.71460 | 10.70312 | 20965 ft | 371 kts | 50° |
| 2026-04-17 22:26 | 50.72997 | 10.73556 | 20527 ft | 368 kts | 50° |
| 2026-04-17 22:26 | 50.74523 | 10.76784 | 20077 ft | 366 kts | 50° |
| 2026-04-17 22:27 | 50.76040 | 10.80001 | 19629 ft | 363 kts | 50° |
| 2026-04-17 22:27 | 50.77539 | 10.83191 | 19209 ft | 360 kts | 50° |
| 2026-04-17 22:27 | 50.79028 | 10.86368 | 18770 ft | 358 kts | 50° |
| 2026-04-17 22:27 | 50.80506 | 10.89520 | 18339 ft | 356 kts | 50° |
| 2026-04-17 22:28 | 50.82095 | 10.92470 | 17929 ft | 351 kts | 43° |
| 2026-04-17 22:28 | 50.83793 | 10.95228 | 17516 ft | 348 kts | 43° |
| 2026-04-17 22:28 | 50.85484 | 10.97952 | 17100 ft | 346 kts | 43° |
| 2026-04-17 22:28 | 50.87152 | 11.00629 | 16693 ft | 344 kts | 43° |
| 2026-04-17 22:29 | 50.88826 | 11.03322 | 16289 ft | 342 kts | 43° |
| 2026-04-17 22:29 | 50.90467 | 11.05966 | 15888 ft | 340 kts | 43° |
| 2026-04-17 22:29 | 50.92121 | 11.08629 | 15493 ft | 338 kts | 43° |
| 2026-04-17 22:29 | 50.93764 | 11.11280 | 15092 ft | 336 kts | 43° |
| 2026-04-17 22:30 | 50.95396 | 11.13914 | 14689 ft | 334 kts | 43° |
| 2026-04-17 22:30 | 50.97020 | 11.16543 | 14287 ft | 332 kts | 43° |
| 2026-04-17 22:30 | 50.98629 | 11.19156 | 13889 ft | 331 kts | 43° |
| 2026-04-17 22:30 | 51.00230 | 11.21757 | 13486 ft | 329 kts | 43° |
| 2026-04-17 22:31 | 51.01817 | 11.24344 | 13076 ft | 326 kts | 44° |
| 2026-04-17 22:31 | 51.03397 | 11.26924 | 12657 ft | 324 kts | 44° |
| 2026-04-17 22:31 | 51.04966 | 11.29484 | 12243 ft | 323 kts | 44° |
| 2026-04-17 22:31 | 51.06530 | 11.32034 | 11839 ft | 321 kts | 44° |
| 2026-04-17 22:32 | 51.08083 | 11.34565 | 11427 ft | 319 kts | 44° |
| 2026-04-17 22:32 | 51.09628 | 11.37079 | 11008 ft | 317 kts | 44° |
| 2026-04-17 22:32 | 51.11167 | 11.39587 | 10583 ft | 316 kts | 44° |
| 2026-04-17 22:32 | 51.12693 | 11.42082 | 10161 ft | 314 kts | 44° |
| 2026-04-17 22:33 | 51.14206 | 11.44561 | 9875 ft | 307 kts | 44° |
| 2026-04-17 22:33 | 51.15664 | 11.46959 | 9753 ft | 296 kts | 44° |
| 2026-04-17 22:33 | 51.17079 | 11.49288 | 9519 ft | 289 kts | 44° |
| 2026-04-17 22:33 | 51.18472 | 11.51579 | 9171 ft | 287 kts | 44° |
| 2026-04-17 22:34 | 51.19858 | 11.53857 | 8799 ft | 285 kts | 44° |
| 2026-04-17 22:34 | 51.21234 | 11.56119 | 8420 ft | 284 kts | 44° |
| 2026-04-17 22:34 | 51.22604 | 11.58373 | 8027 ft | 282 kts | 45° |
| 2026-04-17 22:34 | 51.23966 | 11.60617 | 7635 ft | 281 kts | 45° |
| 2026-04-17 22:35 | 51.25318 | 11.62848 | 7243 ft | 279 kts | 45° |
| 2026-04-17 22:35 | 51.26660 | 11.65068 | 6838 ft | 277 kts | 45° |
| 2026-04-17 22:35 | 51.27999 | 11.67282 | 6440 ft | 276 kts | 45° |
| 2026-04-17 22:35 | 51.29326 | 11.69480 | 6055 ft | 274 kts | 46° |
| 2026-04-17 22:36 | 51.30646 | 11.71663 | 5648 ft | 273 kts | 46° |
| 2026-04-17 22:36 | 51.31963 | 11.73842 | 5216 ft | 272 kts | 46° |
| 2026-04-17 22:36 | 51.33166 | 11.76152 | 4839 ft | 269 kts | 53° |
| 2026-04-17 22:36 | 51.34275 | 11.78545 | 4426 ft | 267 kts | 54° |
| 2026-04-17 22:37 | 51.35380 | 11.80910 | 4116 ft | 261 kts | 54° |
| 2026-04-17 22:37 | 51.36446 | 11.83167 | 3987 ft | 249 kts | 54° |
| 2026-04-17 22:37 | 51.37471 | 11.85332 | 3829 ft | 238 kts | 54° |
| 2026-04-17 22:37 | 51.38459 | 11.87382 | 3696 ft | 227 kts | 53° |
| 2026-04-17 22:38 | 51.39433 | 11.89366 | 3573 ft | 228 kts | 53° |
| 2026-04-17 22:38 | 51.40407 | 11.91350 | 3465 ft | 223 kts | 53° |
| 2026-04-17 22:38 | 51.41331 | 11.93258 | 3355 ft | 211 kts | 59° |
| 2026-04-17 22:38 | 51.41847 | 11.95371 | 3209 ft | 200 kts | 84° |
| 2026-04-17 22:39 | 51.41966 | 11.97544 | 3084 ft | 192 kts | 87° |
| 2026-04-17 22:39 | 51.42068 | 11.99641 | 3012 ft | 188 kts | 87° |
| 2026-04-17 22:39 | 51.42228 | 12.03035 | 2638 ft | 180 kts | 86° |
| 2026-04-17 22:40 | 51.42327 | 12.05001 | 2405 ft | 175 kts | 86° |
| 2026-04-17 22:40 | 51.42430 | 12.06910 | 2178 ft | 166 kts | 86° |
| 2026-04-17 22:40 | 51.42507 | 12.08699 | 1945 ft | 156 kts | 86° |
| 2026-04-17 22:40 | 51.42588 | 12.10363 | 1748 ft | 144 kts | 85° |
| 2026-04-17 22:41 | 51.42666 | 12.11968 | 1584 ft | 144 kts | 85° |
| 2026-04-17 22:41 | 51.42738 | 12.13543 | 1425 ft | 140 kts | 85° |
| 2026-04-17 22:41 | 51.42810 | 12.15106 | 1243 ft | 141 kts | 85° |
| 2026-04-17 22:41 | 51.42884 | 12.16690 | 1059 ft | 145 kts | 86° |
| 2026-04-17 22:42 | 51.42966 | 12.18301 | 870 ft | 143 kts | 85° |
| 2026-04-17 22:42 | 51.43047 | 12.19884 | 672 ft | 142 kts | 85° |
| 2026-04-17 22:42 | 51.43123 | 12.21460 | 485 ft | 141 kts | 85° |
| 2026-04-17 22:42 | 51.43186 | 12.22937 | 436 ft | 115 kts | 86° |
| 2026-04-17 22:43 | 51.43235 | 12.23939 | 441 ft | 65 kts | 85° |
| 2026-04-17 22:43 | 51.43243 | 12.24462 | 442 ft | 36 kts | 101° |
| 2026-04-17 22:43 | 51.43148 | 12.24813 | 447 ft | 33 kts | 116° |
| 2026-04-17 22:43 | 51.43060 | 12.25101 | 449 ft | 21 kts | 116° |
| 2026-04-17 22:44 | 51.42989 | 12.25266 | 450 ft | 13 kts | 164° |
| 2026-04-17 22:44 | 51.42972 | 12.25212 | 450 ft | 8 kts | 289° |
| 2026-04-17 22:44 | 51.42953 | 12.25097 | 448 ft | 14 kts | 207° |
| 2026-04-17 22:44 | 51.42852 | 12.25056 | 450 ft | 15 kts | 192° |
| 2026-04-17 22:45 | 51.42752 | 12.25015 | 456 ft | 14 kts | 192° |
| 2026-04-17 22:45 | 51.42659 | 12.24981 | 462 ft | 15 kts | 193° |
| 2026-04-17 22:45 | 51.42546 | 12.24939 | 468 ft | 17 kts | 194° |
| 2026-04-17 22:45 | 51.42439 | 12.24898 | 475 ft | 16 kts | 194° |
| 2026-04-17 22:46 | 51.42313 | 12.24848 | 483 ft | 20 kts | 194° |
| 2026-04-17 22:46 | 51.42192 | 12.24801 | 490 ft | 17 kts | 193° |
| 2026-04-17 22:46 | 51.42080 | 12.24757 | 491 ft | 17 kts | 193° |
| 2026-04-17 22:46 | 51.41961 | 12.24712 | 490 ft | 19 kts | 194° |
| 2026-04-17 22:47 | 51.41820 | 12.24659 | 482 ft | 25 kts | 193° |
| 2026-04-17 22:47 | 51.41691 | 12.24605 | 479 ft | 16 kts | 204° |
| 2026-04-17 22:47 | 51.41652 | 12.24448 | 478 ft | 17 kts | 267° |
| 2026-04-17 22:47 | 51.41641 | 12.24222 | 479 ft | 22 kts | 264° |
| 2026-04-17 22:48 | 51.41629 | 12.23956 | 473 ft | 26 kts | 266° |
| 2026-04-17 22:48 | 51.41616 | 12.23649 | 470 ft | 29 kts | 265° |
| 2026-04-17 22:48 | 51.41603 | 12.23383 | 466 ft | 22 kts | 266° |
| 2026-04-17 22:48 | 51.41618 | 12.23130 | 463 ft | 25 kts | 284° |
| 2026-04-17 22:49 | 51.41666 | 12.22845 | 454 ft | 21 kts | 284° |
| 2026-04-17 22:49 | 51.41705 | 12.22623 | 446 ft | 23 kts | 285° |
| 2026-04-17 22:49 | 51.41754 | 12.22340 | 436 ft | 24 kts | 285° |
| 2026-04-17 22:49 | 51.41789 | 12.22123 | 436 ft | 17 kts | 286° |
| 2026-04-17 22:50 | 51.41831 | 12.22011 | 436 ft | 10 kts | 343° |
| 2026-04-17 22:50 | 51.41892 | 12.22025 | 436 ft | 8 kts | 15° |
| 2026-04-17 22:50 | 51.41908 | 12.22032 | 436 ft | 1 kts | 15° |
| 2026-04-17 22:50 | 51.41912 | 12.22034 | 436 ft | 0 kts | 15° |
| 2026-04-17 22:51 | 51.41915 | 12.22035 | 436 ft | 0 kts | 15° |